sensor_id;sensor_type;location;lat;lon;timestamp;pressure;altitude;pressure_sealevel;temperature;humidity
8398;BME280;4236;54.504;9.588;2022-08-19T00:01:29;101204.34;;;18.60;100.00
8398;BME280;4236;54.504;9.588;2022-08-19T00:03:57;101212.09;;;18.57;100.00
8398;BME280;4236;54.504;9.588;2022-08-19T00:06:25;101210.78;;;18.59;100.00
8398;BME280;4236;54.504;9.588;2022-08-19T00:08:54;101207.84;;;18.61;100.00
8398;BME280;4236;54.504;9.588;2022-08-19T00:11:23;101211.38;;;18.61;100.00
8398;BME280;4236;54.504;9.588;2022-08-19T00:13:51;101210.06;;;18.64;100.00
8398;BME280;4236;54.504;9.588;2022-08-19T00:16:22;101206.88;;;18.67;100.00
8398;BME280;4236;54.504;9.588;2022-08-19T00:18:52;101208.53;;;18.68;100.00
8398;BME280;4236;54.504;9.588;2022-08-19T00:21:20;101212.53;;;18.65;100.00
8398;BME280;4236;54.504;9.588;2022-08-19T00:23:47;101211.97;;;18.63;100.00
8398;BME280;4236;54.504;9.588;2022-08-19T00:26:15;101200.69;;;18.66;100.00
8398;BME280;4236;54.504;9.588;2022-08-19T00:28:44;101199.38;;;18.69;100.00
8398;BME280;4236;54.504;9.588;2022-08-19T00:31:13;101204.31;;;18.72;100.00
8398;BME280;4236;54.504;9.588;2022-08-19T00:33:42;101188.19;;;18.77;100.00
8398;BME280;4236;54.504;9.588;2022-08-19T00:36:11;101189.13;;;18.83;100.00
8398;BME280;4236;54.504;9.588;2022-08-19T00:38:39;101195.22;;;18.90;100.00
8398;BME280;4236;54.504;9.588;2022-08-19T00:41:12;101189.06;;;18.94;100.00
8398;BME280;4236;54.504;9.588;2022-08-19T00:43:40;101190.81;;;19.00;100.00
8398;BME280;4236;54.504;9.588;2022-08-19T00:46:09;101177.28;;;19.00;100.00
8398;BME280;4236;54.504;9.588;2022-08-19T00:48:37;101186.63;;;18.93;100.00
8398;BME280;4236;54.504;9.588;2022-08-19T00:51:05;101180.47;;;18.97;100.00
8398;BME280;4236;54.504;9.588;2022-08-19T00:53:33;101173.19;;;18.98;100.00
8398;BME280;4236;54.504;9.588;2022-08-19T00:56:02;101174.50;;;18.95;100.00
8398;BME280;4236;54.504;9.588;2022-08-19T00:58:33;101176.88;;;18.92;100.00
8398;BME280;4236;54.504;9.588;2022-08-19T01:01:02;101187.09;;;18.90;100.00
8398;BME280;4236;54.504;9.588;2022-08-19T01:03:31;101183.00;;;18.87;100.00
8398;BME280;4236;54.504;9.588;2022-08-19T01:06:19;101190.28;;;18.87;100.00
8398;BME280;4236;54.504;9.588;2022-08-19T01:08:47;101179.00;;;18.90;100.00
8398;BME280;4236;54.504;9.588;2022-08-19T01:11:16;101184.75;;;18.93;100.00
8398;BME280;4236;54.504;9.588;2022-08-19T01:13:44;101179.34;;;18.93;100.00
8398;BME280;4236;54.504;9.588;2022-08-19T01:16:17;101180.78;;;18.84;100.00
8398;BME280;4236;54.504;9.588;2022-08-19T01:18:48;101181.00;;;18.83;100.00
8398;BME280;4236;54.504;9.588;2022-08-19T01:21:19;101181.34;;;18.86;100.00
8398;BME280;4236;54.504;9.588;2022-08-19T01:23:49;101176.00;;;18.74;100.00
8398;BME280;4236;54.504;9.588;2022-08-19T01:26:20;101173.03;;;18.76;100.00
8398;BME280;4236;54.504;9.588;2022-08-19T01:28:51;101177.28;;;18.72;100.00
8398;BME280;4236;54.504;9.588;2022-08-19T01:31:26;101166.97;;;18.69;100.00
8398;BME280;4236;54.504;9.588;2022-08-19T01:33:59;101174.94;;;18.64;100.00
8398;BME280;4236;54.504;9.588;2022-08-19T01:36:29;101162.31;;;18.53;100.00
8398;BME280;4236;54.504;9.588;2022-08-19T01:38:59;101167.13;;;18.51;100.00
8398;BME280;4236;54.504;9.588;2022-08-19T01:41:27;101167.69;;;18.53;100.00
8398;BME280;4236;54.504;9.588;2022-08-19T01:43:55;101181.19;;;18.53;100.00
8398;BME280;4236;54.504;9.588;2022-08-19T01:46:43;101176.72;;;18.58;100.00
8398;BME280;4236;54.504;9.588;2022-08-19T01:49:11;101179.56;;;18.63;100.00
8398;BME280;4236;54.504;9.588;2022-08-19T01:51:38;101180.69;;;18.67;100.00
8398;BME280;4236;54.504;9.588;2022-08-19T01:54:08;101182.34;;;18.68;100.00
8398;BME280;4236;54.504;9.588;2022-08-19T01:56:36;101186.44;;;18.71;100.00
8398;BME280;4236;54.504;9.588;2022-08-19T01:59:09;101187.50;;;18.70;100.00
8398;BME280;4236;54.504;9.588;2022-08-19T02:01:37;101187.75;;;18.68;100.00
8398;BME280;4236;54.504;9.588;2022-08-19T02:04:05;101178.91;;;18.73;100.00
8398;BME280;4236;54.504;9.588;2022-08-19T02:06:33;101174.69;;;18.77;100.00
8398;BME280;4236;54.504;9.588;2022-08-19T02:09:01;101173.97;;;18.82;100.00
8398;BME280;4236;54.504;9.588;2022-08-19T02:11:33;101171.75;;;18.78;100.00
8398;BME280;4236;54.504;9.588;2022-08-19T02:14:03;101162.00;;;18.77;100.00
8398;BME280;4236;54.504;9.588;2022-08-19T02:16:32;101157.78;;;18.70;100.00
8398;BME280;4236;54.504;9.588;2022-08-19T02:19:00;101158.59;;;18.70;100.00
8398;BME280;4236;54.504;9.588;2022-08-19T02:21:29;101152.38;;;18.70;100.00
8398;BME280;4236;54.504;9.588;2022-08-19T02:23:57;101166.50;;;18.72;100.00
8398;BME280;4236;54.504;9.588;2022-08-19T02:26:25;101154.59;;;18.73;100.00
8398;BME280;4236;54.504;9.588;2022-08-19T02:28:55;101155.69;;;18.72;100.00
8398;BME280;4236;54.504;9.588;2022-08-19T02:31:24;101139.81;;;18.64;100.00
8398;BME280;4236;54.504;9.588;2022-08-19T02:33:54;101141.38;;;18.60;100.00
8398;BME280;4236;54.504;9.588;2022-08-19T02:36:23;101139.50;;;18.49;100.00
8398;BME280;4236;54.504;9.588;2022-08-19T02:38:51;101141.63;;;18.47;100.00
8398;BME280;4236;54.504;9.588;2022-08-19T02:41:22;101135.19;;;18.36;100.00
8398;BME280;4236;54.504;9.588;2022-08-19T02:43:52;101137.44;;;18.28;100.00
8398;BME280;4236;54.504;9.588;2022-08-19T02:46:42;101153.28;;;18.24;100.00
8398;BME280;4236;54.504;9.588;2022-08-19T02:49:11;101148.47;;;18.14;100.00
8398;BME280;4236;54.504;9.588;2022-08-19T02:51:40;101148.47;;;18.14;100.00
8398;BME280;4236;54.504;9.588;2022-08-19T02:54:09;101147.75;;;18.19;100.00
8398;BME280;4236;54.504;9.588;2022-08-19T02:56:38;101144.25;;;18.18;100.00
8398;BME280;4236;54.504;9.588;2022-08-19T02:59:06;101148.94;;;18.11;100.00
8398;BME280;4236;54.504;9.588;2022-08-19T03:01:38;101142.84;;;18.04;100.00
8398;BME280;4236;54.504;9.588;2022-08-19T03:04:11;101138.88;;;18.07;100.00
8398;BME280;4236;54.504;9.588;2022-08-19T03:06:40;101143.00;;;17.98;100.00
8398;BME280;4236;54.504;9.588;2022-08-19T03:09:09;101147.09;;;18.00;100.00
8398;BME280;4236;54.504;9.588;2022-08-19T03:11:37;101145.44;;;17.99;100.00
8398;BME280;4236;54.504;9.588;2022-08-19T03:14:06;101133.59;;;18.00;100.00
8398;BME280;4236;54.504;9.588;2022-08-19T03:16:41;101139.34;;;18.04;100.00
8398;BME280;4236;54.504;9.588;2022-08-19T03:19:10;101134.19;;;18.02;100.00
8398;BME280;4236;54.504;9.588;2022-08-19T03:21:38;101141.81;;;18.05;100.00
8398;BME280;4236;54.504;9.588;2022-08-19T03:24:08;101136.66;;;18.04;100.00
8398;BME280;4236;54.504;9.588;2022-08-19T03:26:38;101137.69;;;18.03;100.00
8398;BME280;4236;54.504;9.588;2022-08-19T03:29:06;101140.50;;;17.96;100.00
8398;BME280;4236;54.504;9.588;2022-08-19T03:31:40;101134.28;;;17.96;100.00
8398;BME280;4236;54.504;9.588;2022-08-19T03:34:21;101136.41;;;17.94;100.00
8398;BME280;4236;54.504;9.588;2022-08-19T03:36:53;101135.38;;;17.95;100.00
8398;BME280;4236;54.504;9.588;2022-08-19T03:39:22;101135.59;;;17.93;100.00
8398;BME280;4236;54.504;9.588;2022-08-19T03:41:51;101145.56;;;17.93;100.00
8398;BME280;4236;54.504;9.588;2022-08-19T03:44:39;101137.72;;;17.91;100.00
8398;BME280;4236;54.504;9.588;2022-08-19T03:47:08;101129.25;;;17.88;100.00
8398;BME280;4236;54.504;9.588;2022-08-19T03:49:42;101122.81;;;17.89;100.00
8398;BME280;4236;54.504;9.588;2022-08-19T03:52:10;101123.03;;;17.87;100.00
8398;BME280;4236;54.504;9.588;2022-08-19T03:54:38;101132.88;;;17.93;100.00
8398;BME280;4236;54.504;9.588;2022-08-19T03:57:06;101143.69;;;17.93;100.00
8398;BME280;4236;54.504;9.588;2022-08-19T03:59:36;101131.22;;;17.92;100.00
8398;BME280;4236;54.504;9.588;2022-08-19T04:02:07;101142.28;;;17.91;100.00
8398;BME280;4236;54.504;9.588;2022-08-19T04:04:36;101145.69;;;17.98;100.00
8398;BME280;4236;54.504;9.588;2022-08-19T04:07:06;101143.22;;;17.96;100.00
8398;BME280;4236;54.504;9.588;2022-08-19T04:09:35;101148.38;;;17.98;100.00
8398;BME280;4236;54.504;9.588;2022-08-19T04:12:04;101153.66;;;18.04;100.00
8398;BME280;4236;54.504;9.588;2022-08-19T04:14:33;101157.88;;;18.12;100.00
8398;BME280;4236;54.504;9.588;2022-08-19T04:17:02;101165.97;;;18.23;100.00
8398;BME280;4236;54.504;9.588;2022-08-19T04:19:33;101163.16;;;18.30;100.00
8398;BME280;4236;54.504;9.588;2022-08-19T04:22:01;101172.53;;;18.28;100.00
8398;BME280;4236;54.504;9.588;2022-08-19T04:24:30;101177.47;;;18.31;100.00
8398;BME280;4236;54.504;9.588;2022-08-19T04:26:59;101184.50;;;18.32;100.00
8398;BME280;4236;54.504;9.588;2022-08-19T04:29:27;101180.28;;;18.36;100.00
8398;BME280;4236;54.504;9.588;2022-08-19T04:31:55;101188.59;;;18.34;100.00
8398;BME280;4236;54.504;9.588;2022-08-19T04:34:25;101190.25;;;18.35;100.00
8398;BME280;4236;54.504;9.588;2022-08-19T04:36:55;101196.00;;;18.39;100.00
8398;BME280;4236;54.504;9.588;2022-08-19T04:39:26;101198.59;;;18.34;100.00
8398;BME280;4236;54.504;9.588;2022-08-19T04:42:17;101206.22;;;18.37;100.00
8398;BME280;4236;54.504;9.588;2022-08-19T04:45:03;101210.53;;;18.38;100.00
8398;BME280;4236;54.504;9.588;2022-08-19T04:47:35;101209.25;;;18.40;100.00
8398;BME280;4236;54.504;9.588;2022-08-19T04:50:22;101211.25;;;18.45;100.00
8398;BME280;4236;54.504;9.588;2022-08-19T04:52:51;101222.28;;;18.43;100.00
8398;BME280;4236;54.504;9.588;2022-08-19T04:55:19;101224.75;;;18.45;100.00
8398;BME280;4236;54.504;9.588;2022-08-19T04:57:48;101228.75;;;18.42;100.00
8398;BME280;4236;54.504;9.588;2022-08-19T05:00:17;101224.41;;;18.41;100.00
8398;BME280;4236;54.504;9.588;2022-08-19T05:02:44;101224.06;;;18.38;100.00
8398;BME280;4236;54.504;9.588;2022-08-19T05:05:12;101220.66;;;18.31;100.00
8398;BME280;4236;54.504;9.588;2022-08-19T05:07:40;101235.22;;;18.30;100.00
8398;BME280;4236;54.504;9.588;2022-08-19T05:10:09;101238.50;;;18.32;100.00
8398;BME280;4236;54.504;9.588;2022-08-19T05:12:37;101241.09;;;18.27;100.00
8398;BME280;4236;54.504;9.588;2022-08-19T05:15:07;101242.59;;;18.22;100.00
8398;BME280;4236;54.504;9.588;2022-08-19T05:17:35;101244.94;;;18.19;100.00
8398;BME280;4236;54.504;9.588;2022-08-19T05:20:05;101251.16;;;18.19;100.00
8398;BME280;4236;54.504;9.588;2022-08-19T05:22:51;101249.53;;;18.18;100.00
8398;BME280;4236;54.504;9.588;2022-08-19T05:25:20;101243.06;;;18.19;100.00
8398;BME280;4236;54.504;9.588;2022-08-19T05:27:48;101248.13;;;18.28;100.00
8398;BME280;4236;54.504;9.588;2022-08-19T05:30:18;101250.00;;;18.27;100.00
8398;BME280;4236;54.504;9.588;2022-08-19T05:33:06;101246.13;;;18.35;100.00
8398;BME280;4236;54.504;9.588;2022-08-19T05:35:35;101252.13;;;18.37;100.00
8398;BME280;4236;54.504;9.588;2022-08-19T05:38:03;101249.91;;;18.34;100.00
8398;BME280;4236;54.504;9.588;2022-08-19T05:40:31;101255.50;;;18.32;100.00
8398;BME280;4236;54.504;9.588;2022-08-19T05:43:00;101246.22;;;18.28;100.00
8398;BME280;4236;54.504;9.588;2022-08-19T05:45:29;101253.88;;;18.31;100.00
8398;BME280;4236;54.504;9.588;2022-08-19T05:47:57;101252.59;;;18.34;100.00
8398;BME280;4236;54.504;9.588;2022-08-19T05:50:25;101250.13;;;18.32;100.00
8398;BME280;4236;54.504;9.588;2022-08-19T05:52:53;101238.13;;;18.28;100.00
8398;BME280;4236;54.504;9.588;2022-08-19T05:55:20;101248.47;;;18.31;100.00
8398;BME280;4236;54.504;9.588;2022-08-19T05:57:48;101254.34;;;18.40;100.00
8398;BME280;4236;54.504;9.588;2022-08-19T06:00:16;101248.50;;;18.43;100.00
8398;BME280;4236;54.504;9.588;2022-08-19T06:02:51;101242.16;;;18.49;100.00
8398;BME280;4236;54.504;9.588;2022-08-19T06:05:21;101249.91;;;18.57;100.00
8398;BME280;4236;54.504;9.588;2022-08-19T06:07:48;101244.59;;;18.62;100.00
8398;BME280;4236;54.504;9.588;2022-08-19T06:10:16;101245.19;;;18.64;100.00
8398;BME280;4236;54.504;9.588;2022-08-19T06:12:43;101244.97;;;18.65;100.00
8398;BME280;4236;54.504;9.588;2022-08-19T06:15:13;101240.13;;;18.67;100.00
8398;BME280;4236;54.504;9.588;2022-08-19T06:17:41;101243.19;;;18.71;100.00
8398;BME280;4236;54.504;9.588;2022-08-19T06:20:13;101238.97;;;18.75;100.00
8398;BME280;4236;54.504;9.588;2022-08-19T06:22:46;101238.69;;;18.76;100.00
8398;BME280;4236;54.504;9.588;2022-08-19T06:25:15;101230.47;;;18.83;100.00
8398;BME280;4236;54.504;9.588;2022-08-19T06:27:44;101238.09;;;18.86;100.00
8398;BME280;4236;54.504;9.588;2022-08-19T06:30:32;101233.75;;;18.85;100.00
8398;BME280;4236;54.504;9.588;2022-08-19T06:32:59;101235.41;;;18.86;100.00
8398;BME280;4236;54.504;9.588;2022-08-19T06:35:28;101231.88;;;18.86;100.00
8398;BME280;4236;54.504;9.588;2022-08-19T06:37:56;101241.53;;;18.82;100.00
8398;BME280;4236;54.504;9.588;2022-08-19T06:40:24;101242.97;;;18.72;100.00
8398;BME280;4236;54.504;9.588;2022-08-19T06:42:51;101247.06;;;18.75;100.00
8398;BME280;4236;54.504;9.588;2022-08-19T06:45:21;101245.75;;;18.77;100.00
8398;BME280;4236;54.504;9.588;2022-08-19T06:47:51;101248.22;;;18.79;100.00
8398;BME280;4236;54.504;9.588;2022-08-19T06:50:22;101249.38;;;18.83;100.00
8398;BME280;4236;54.504;9.588;2022-08-19T06:52:51;101237.19;;;18.81;100.00
8398;BME280;4236;54.504;9.588;2022-08-19T06:55:20;101240.56;;;18.88;100.00
8398;BME280;4236;54.504;9.588;2022-08-19T06:57:49;101243.72;;;18.96;100.00
8398;BME280;4236;54.504;9.588;2022-08-19T07:00:19;101254.53;;;18.96;100.00
8398;BME280;4236;54.504;9.588;2022-08-19T07:02:47;101254.06;;;18.99;100.00
8398;BME280;4236;54.504;9.588;2022-08-19T07:05:22;101250.97;;;19.07;100.00
8398;BME280;4236;54.504;9.588;2022-08-19T07:07:51;101258.13;;;19.13;100.00
8398;BME280;4236;54.504;9.588;2022-08-19T07:10:23;101244.03;;;19.11;100.00
8398;BME280;4236;54.504;9.588;2022-08-19T07:12:51;101252.03;;;19.06;100.00
8398;BME280;4236;54.504;9.588;2022-08-19T07:15:20;101240.28;;;19.01;100.00
8398;BME280;4236;54.504;9.588;2022-08-19T07:17:47;101249.56;;;19.05;100.00
8398;BME280;4236;54.504;9.588;2022-08-19T07:20:18;101256.59;;;19.06;100.00
8398;BME280;4236;54.504;9.588;2022-08-19T07:22:46;101256.50;;;19.01;100.00
8398;BME280;4236;54.504;9.588;2022-08-19T07:25:15;101263.69;;;18.95;100.00
8398;BME280;4236;54.504;9.588;2022-08-19T07:27:44;101264.53;;;18.96;100.00
8398;BME280;4236;54.504;9.588;2022-08-19T07:30:19;101266.75;;;18.99;100.00
8398;BME280;4236;54.504;9.588;2022-08-19T07:32:51;101273.16;;;19.09;100.00
8398;BME280;4236;54.504;9.588;2022-08-19T07:35:19;101277.19;;;19.07;100.00
8398;BME280;4236;54.504;9.588;2022-08-19T07:37:46;101274.44;;;19.18;100.00
8398;BME280;4236;54.504;9.588;2022-08-19T07:40:16;101282.41;;;19.25;100.00
8398;BME280;4236;54.504;9.588;2022-08-19T07:42:43;101277.09;;;19.30;100.00
8398;BME280;4236;54.504;9.588;2022-08-19T07:45:11;101283.31;;;19.30;100.00
8398;BME280;4236;54.504;9.588;2022-08-19T07:47:39;101270.06;;;19.29;100.00
8398;BME280;4236;54.504;9.588;2022-08-19T07:50:17;101272.75;;;19.29;100.00
8398;BME280;4236;54.504;9.588;2022-08-19T07:52:46;101276.38;;;19.34;100.00
8398;BME280;4236;54.504;9.588;2022-08-19T07:55:25;101274.50;;;19.35;100.00
8398;BME280;4236;54.504;9.588;2022-08-19T07:58:06;101279.28;;;19.45;100.00
8398;BME280;4236;54.504;9.588;2022-08-19T08:00:34;101278.31;;;19.51;100.00
8398;BME280;4236;54.504;9.588;2022-08-19T08:03:02;101288.19;;;19.57;100.00
8398;BME280;4236;54.504;9.588;2022-08-19T08:05:29;101294.28;;;19.64;100.00
8398;BME280;4236;54.504;9.588;2022-08-19T08:08:14;101301.97;;;19.55;100.00
8398;BME280;4236;54.504;9.588;2022-08-19T08:11:01;101298.19;;;19.56;100.00
8398;BME280;4236;54.504;9.588;2022-08-19T08:13:33;101304.31;;;19.52;100.00
8398;BME280;4236;54.504;9.588;2022-08-19T08:16:02;101306.69;;;19.48;100.00
8398;BME280;4236;54.504;9.588;2022-08-19T08:18:29;101314.72;;;19.43;100.00
8398;BME280;4236;54.504;9.588;2022-08-19T08:20:57;101299.97;;;19.51;100.00
8398;BME280;4236;54.504;9.588;2022-08-19T08:23:25;101304.59;;;19.50;100.00
8398;BME280;4236;54.504;9.588;2022-08-19T08:25:56;101299.66;;;19.47;100.00
8398;BME280;4236;54.504;9.588;2022-08-19T08:28:27;101306.34;;;19.45;100.00
8398;BME280;4236;54.504;9.588;2022-08-19T08:30:56;101314.72;;;19.43;100.00
8398;BME280;4236;54.504;9.588;2022-08-19T08:33:28;101304.97;;;19.30;100.00
8398;BME280;4236;54.504;9.588;2022-08-19T08:36:00;101312.69;;;19.39;100.00
8398;BME280;4236;54.504;9.588;2022-08-19T08:38:29;101308.00;;;19.34;100.00
8398;BME280;4236;54.504;9.588;2022-08-19T08:41:09;101315.06;;;19.35;100.00
8398;BME280;4236;54.504;9.588;2022-08-19T08:43:45;101311.75;;;19.33;100.00
8398;BME280;4236;54.504;9.588;2022-08-19T08:46:15;101318.94;;;19.39;100.00
8398;BME280;4236;54.504;9.588;2022-08-19T08:49:02;101316.13;;;19.34;100.00
8398;BME280;4236;54.504;9.588;2022-08-19T08:51:39;101309.19;;;19.38;100.00
8398;BME280;4236;54.504;9.588;2022-08-19T08:54:15;101325.06;;;19.34;100.00
8398;BME280;4236;54.504;9.588;2022-08-19T08:56:45;101314.81;;;19.37;100.00
8398;BME280;4236;54.504;9.588;2022-08-19T08:59:21;101315.63;;;19.49;100.00
8398;BME280;4236;54.504;9.588;2022-08-19T09:01:49;101312.88;;;19.60;100.00
8398;BME280;4236;54.504;9.588;2022-08-19T09:04:17;101315.91;;;19.64;100.00
8398;BME280;4236;54.504;9.588;2022-08-19T09:06:51;101322.44;;;19.79;100.00
8398;BME280;4236;54.504;9.588;2022-08-19T09:09:26;101312.38;;;19.92;100.00
8398;BME280;4236;54.504;9.588;2022-08-19T09:12:04;101313.13;;;20.04;100.00
8398;BME280;4236;54.504;9.588;2022-08-19T09:14:45;101310.91;;;20.17;100.00
8398;BME280;4236;54.504;9.588;2022-08-19T09:17:19;101312.63;;;20.23;100.00
8398;BME280;4236;54.504;9.588;2022-08-19T09:19:50;101317.09;;;20.29;100.00
8398;BME280;4236;54.504;9.588;2022-08-19T09:22:18;101318.03;;;20.23;100.00
8398;BME280;4236;54.504;9.588;2022-08-19T09:24:52;101313.72;;;20.39;100.00
8398;BME280;4236;54.504;9.588;2022-08-19T09:27:22;101319.06;;;20.51;100.00
8398;BME280;4236;54.504;9.588;2022-08-19T09:30:13;101314.59;;;20.61;100.00
8398;BME280;4236;54.504;9.588;2022-08-19T09:32:42;101318.91;;;20.79;100.00
8398;BME280;4236;54.504;9.588;2022-08-19T09:35:12;101319.41;;;20.76;100.00
8398;BME280;4236;54.504;9.588;2022-08-19T09:37:41;101318.34;;;20.77;100.00
8398;BME280;4236;54.504;9.588;2022-08-19T09:40:10;101314.50;;;20.73;100.00
8398;BME280;4236;54.504;9.588;2022-08-19T09:42:38;101318.84;;;20.74;100.00
8398;BME280;4236;54.504;9.588;2022-08-19T09:45:18;101328.47;;;20.65;100.00
8398;BME280;4236;54.504;9.588;2022-08-19T09:47:48;101323.22;;;20.58;100.00
8398;BME280;4236;54.504;9.588;2022-08-19T09:50:17;101326.75;;;20.59;100.00
8398;BME280;4236;54.504;9.588;2022-08-19T09:52:45;101329.34;;;20.49;100.00
8398;BME280;4236;54.504;9.588;2022-08-19T09:55:24;101322.75;;;20.45;100.00
8398;BME280;4236;54.504;9.588;2022-08-19T09:57:59;101333.31;;;20.46;100.00
8398;BME280;4236;54.504;9.588;2022-08-19T10:00:29;101335.38;;;20.56;100.00
8398;BME280;4236;54.504;9.588;2022-08-19T10:02:58;101331.19;;;20.65;100.00
8398;BME280;4236;54.504;9.588;2022-08-19T10:05:26;101330.13;;;20.66;100.00
8398;BME280;4236;54.504;9.588;2022-08-19T10:08:14;101332.66;;;20.72;100.00
8398;BME280;4236;54.504;9.588;2022-08-19T10:10:43;101319.91;;;20.73;100.00
8398;BME280;4236;54.504;9.588;2022-08-19T10:13:13;101326.63;;;20.87;100.00
8398;BME280;4236;54.504;9.588;2022-08-19T10:15:42;101326.38;;;20.88;100.00
8398;BME280;4236;54.504;9.588;2022-08-19T10:18:15;101321.84;;;20.94;100.00
8398;BME280;4236;54.504;9.588;2022-08-19T10:20:44;101329.06;;;21.05;100.00
8398;BME280;4236;54.504;9.588;2022-08-19T10:23:18;101319.38;;;20.92;100.00
8398;BME280;4236;54.504;9.588;2022-08-19T10:25:46;101326.66;;;21.09;100.00
8398;BME280;4236;54.504;9.588;2022-08-19T10:28:14;101315.44;;;21.22;100.00
8398;BME280;4236;54.504;9.588;2022-08-19T10:30:46;101311.53;;;21.34;100.00
8398;BME280;4236;54.504;9.588;2022-08-19T10:33:14;101325.56;;;21.26;100.00
8398;BME280;4236;54.504;9.588;2022-08-19T10:36:04;101319.25;;;21.47;100.00
8398;BME280;4236;54.504;9.588;2022-08-19T10:38:34;101317.69;;;21.51;100.00
8398;BME280;4236;54.504;9.588;2022-08-19T10:41:09;101308.50;;;21.52;100.00
8398;BME280;4236;54.504;9.588;2022-08-19T10:43:37;101314.94;;;21.46;100.00
8398;BME280;4236;54.504;9.588;2022-08-19T10:46:09;101307.97;;;21.56;100.00
8398;BME280;4236;54.504;9.588;2022-08-19T10:48:42;101317.81;;;21.62;100.00
8398;BME280;4236;54.504;9.588;2022-08-19T10:51:10;101309.59;;;21.57;99.68
8398;BME280;4236;54.504;9.588;2022-08-19T10:53:56;101306.59;;;21.80;98.92
8398;BME280;4236;54.504;9.588;2022-08-19T10:56:24;101302.94;;;21.91;98.69
8398;BME280;4236;54.504;9.588;2022-08-19T10:59:10;101301.47;;;22.10;97.73
8398;BME280;4236;54.504;9.588;2022-08-19T11:01:40;101304.78;;;22.17;95.90
8398;BME280;4236;54.504;9.588;2022-08-19T11:04:09;101305.69;;;22.28;94.72
8398;BME280;4236;54.504;9.588;2022-08-19T11:06:39;101315.84;;;22.42;93.47
8398;BME280;4236;54.504;9.588;2022-08-19T11:09:08;101315.16;;;22.62;95.26
8398;BME280;4236;54.504;9.588;2022-08-19T11:11:37;101307.75;;;22.94;94.97
8398;BME280;4236;54.504;9.588;2022-08-19T11:14:08;101298.31;;;23.12;90.05
8398;BME280;4236;54.504;9.588;2022-08-19T11:16:36;101303.84;;;23.37;87.50
8398;BME280;4236;54.504;9.588;2022-08-19T11:19:08;101297.19;;;23.85;87.97
8398;BME280;4236;54.504;9.588;2022-08-19T11:21:37;101292.56;;;24.11;83.09
8398;BME280;4236;54.504;9.588;2022-08-19T11:24:08;101290.09;;;24.09;81.60
8398;BME280;4236;54.504;9.588;2022-08-19T11:26:37;101294.72;;;23.79;83.06
8398;BME280;4236;54.504;9.588;2022-08-19T11:29:06;101286.28;;;23.90;84.90
8398;BME280;4236;54.504;9.588;2022-08-19T11:31:40;101296.03;;;23.66;82.29
8398;BME280;4236;54.504;9.588;2022-08-19T11:34:11;101287.31;;;23.44;84.48
8398;BME280;4236;54.504;9.588;2022-08-19T11:36:42;101288.69;;;23.61;86.79
8398;BME280;4236;54.504;9.588;2022-08-19T11:39:13;101285.44;;;23.69;85.69
8398;BME280;4236;54.504;9.588;2022-08-19T11:41:41;101285.72;;;23.68;84.79
8398;BME280;4236;54.504;9.588;2022-08-19T11:44:09;101290.34;;;23.73;83.05
8398;BME280;4236;54.504;9.588;2022-08-19T11:46:37;101286.31;;;24.20;83.60
8398;BME280;4236;54.504;9.588;2022-08-19T11:49:06;101283.22;;;24.67;79.62
8398;BME280;4236;54.504;9.588;2022-08-19T11:51:41;101285.09;;;24.77;77.48
8398;BME280;4236;54.504;9.588;2022-08-19T11:54:10;101281.28;;;24.88;75.08
8398;BME280;4236;54.504;9.588;2022-08-19T11:56:39;101274.88;;;25.18;73.83
8398;BME280;4236;54.504;9.588;2022-08-19T11:59:08;101268.28;;;25.24;73.99
8398;BME280;4236;54.504;9.588;2022-08-19T12:01:40;101278.09;;;25.30;74.47
8398;BME280;4236;54.504;9.588;2022-08-19T12:04:09;101272.31;;;25.37;75.71
8398;BME280;4236;54.504;9.588;2022-08-19T12:06:40;101272.28;;;25.47;76.33
8398;BME280;4236;54.504;9.588;2022-08-19T12:09:09;101271.44;;;25.51;75.56
8398;BME280;4236;54.504;9.588;2022-08-19T12:11:38;101271.81;;;25.35;74.08
8398;BME280;4236;54.504;9.588;2022-08-19T12:14:09;101271.88;;;25.19;75.00
8398;BME280;4236;54.504;9.588;2022-08-19T12:16:40;101283.47;;;24.86;73.92
8398;BME280;4236;54.504;9.588;2022-08-19T12:19:17;101276.13;;;24.82;77.75
8398;BME280;4236;54.504;9.588;2022-08-19T12:21:49;101286.72;;;24.88;78.05
8398;BME280;4236;54.504;9.588;2022-08-19T12:24:19;101291.91;;;24.95;77.50
8398;BME280;4236;54.504;9.588;2022-08-19T12:26:49;101278.28;;;24.90;75.62
8398;BME280;4236;54.504;9.588;2022-08-19T12:29:19;101277.56;;;24.49;75.93
8398;BME280;4236;54.504;9.588;2022-08-19T12:31:49;101285.47;;;24.10;77.50
8398;BME280;4236;54.504;9.588;2022-08-19T12:34:17;101288.19;;;24.05;80.32
8398;BME280;4236;54.504;9.588;2022-08-19T12:36:46;101293.94;;;23.98;81.09
8398;BME280;4236;54.504;9.588;2022-08-19T12:39:17;101287.38;;;23.94;81.39
8398;BME280;4236;54.504;9.588;2022-08-19T12:41:44;101284.63;;;23.79;81.56
8398;BME280;4236;54.504;9.588;2022-08-19T12:44:21;101284.38;;;23.86;82.88
8398;BME280;4236;54.504;9.588;2022-08-19T12:46:59;101289.28;;;23.89;82.43
8398;BME280;4236;54.504;9.588;2022-08-19T12:49:30;101282.47;;;24.01;82.13
8398;BME280;4236;54.504;9.588;2022-08-19T12:52:19;101282.19;;;24.08;80.53
8398;BME280;4236;54.504;9.588;2022-08-19T12:54:50;101276.22;;;24.26;80.64
8398;BME280;4236;54.504;9.588;2022-08-19T12:57:21;101278.34;;;24.49;79.88
8398;BME280;4236;54.504;9.588;2022-08-19T12:59:57;101280.75;;;24.76;79.39
8398;BME280;4236;54.504;9.588;2022-08-19T13:02:25;101270.38;;;24.88;76.03
8398;BME280;4236;54.504;9.588;2022-08-19T13:04:53;101269.53;;;24.93;75.75
8398;BME280;4236;54.504;9.588;2022-08-19T13:07:21;101277.16;;;24.96;74.59
8398;BME280;4236;54.504;9.588;2022-08-19T13:09:52;101282.09;;;24.89;74.56
8398;BME280;4236;54.504;9.588;2022-08-19T13:12:19;101284.84;;;24.84;75.48
8398;BME280;4236;54.504;9.588;2022-08-19T13:14:50;101280.19;;;24.79;75.27
8398;BME280;4236;54.504;9.588;2022-08-19T13:17:18;101278.56;;;24.73;76.06
8398;BME280;4236;54.504;9.588;2022-08-19T13:19:46;101280.28;;;24.54;74.82
8398;BME280;4236;54.504;9.588;2022-08-19T13:22:13;101273.75;;;24.40;75.35